Time;durP1;ratioP1;P1;durP2;ratioP2;P2;SDS_P1;SDS_P2;PMS_P1;PMS_P2;Temp;Humidity;BMP_temperature;BMP_pressure;BME280_temperature;BME280_humidity;BME280_pressure;Samples;Min_cycle;Max_cycle;Signal;HPM_P1;HPM_P2
2021/01/12 00:00:32;;;;;;;29.17;20.80;;;;;;;3.03;93.53;99498.91;5061562;28;20492;-64
2021/01/12 00:03:00;;;;;;;29.30;21.43;;;;;;;3.04;92.83;99495.28;5064045;28;20448;-64
2021/01/12 00:05:26;;;;;;;28.50;21.47;;;;;;;3.00;93.04;99482.34;5062495;28;20499;-64
2021/01/12 00:07:53;;;;;;;30.67;22.60;;;;;;;3.00;93.58;99495.53;5063173;28;20504;-64
2021/01/12 00:10:19;;;;;;;31.40;23.37;;;;;;;2.99;93.34;99483.28;5061810;28;20519;-64
2021/01/12 00:12:46;;;;;;;29.73;21.40;;;;;;;3.00;93.55;99484.97;5064149;28;21038;-64
2021/01/12 00:15:12;;;;;;;30.03;23.30;;;;;;;3.00;93.75;99482.34;5061838;28;20441;-65
2021/01/12 00:17:38;;;;;;;29.93;22.20;;;;;;;3.02;93.41;99479.56;5063688;28;20519;-64
2021/01/12 00:20:07;;;;;;;28.60;21.43;;;;;;;3.03;93.66;99470.69;5062036;28;20462;-64
2021/01/12 00:22:34;;;;;;;26.03;19.03;;;;;;;3.01;93.64;99473.44;5062724;28;20460;-64
2021/01/12 00:25:00;;;;;;;28.63;20.87;;;;;;;3.03;93.72;99461.94;5063064;28;20479;-65
2021/01/12 00:27:26;;;;;;;28.27;21.80;;;;;;;3.00;93.74;99469.13;5061963;28;20505;-64
2021/01/12 00:29:52;;;;;;;27.90;21.30;;;;;;;3.05;93.77;99462.66;5063162;28;20493;-64
2021/01/12 00:32:19;;;;;;;29.67;20.80;;;;;;;3.08;93.47;99459.81;5060854;28;20500;-64
2021/01/12 00:34:45;;;;;;;35.53;25.00;;;;;;;3.06;93.92;99453.81;5063001;28;20478;-64
2021/01/12 00:37:15;;;;;;;28.87;21.90;;;;;;;3.06;93.76;99446.72;5060715;28;20519;-64
2021/01/12 00:39:42;;;;;;;28.97;21.80;;;;;;;3.07;93.70;99451.03;5062407;28;21428;-64
2021/01/12 00:42:08;;;;;;;30.23;23.10;;;;;;;3.11;93.97;99456.94;5061077;28;20543;-65
2021/01/12 00:44:34;;;;;;;30.90;23.70;;;;;;;3.07;93.80;99452.81;5063935;28;20479;-65
2021/01/12 00:47:00;;;;;;;29.27;22.17;;;;;;;3.04;94.44;99430.13;5062727;28;20511;-65
2021/01/12 00:49:27;;;;;;;30.00;21.20;;;;;;;3.08;94.10;99441.31;5064143;28;20469;-65
2021/01/12 00:51:54;;;;;;;33.90;23.00;;;;;;;3.07;94.42;99447.53;5062259;28;20508;-65
2021/01/12 00:54:23;;;;;;;34.57;20.93;;;;;;;3.08;94.31;99443.97;5064264;28;20429;-65
2021/01/12 00:56:49;;;;;;;30.40;22.20;;;;;;;3.09;94.10;99443.84;5061863;28;20499;-65
2021/01/12 00:59:15;;;;;;;28.60;20.23;;;;;;;3.07;94.37;99440.44;5063715;28;20487;-65
2021/01/12 01:01:42;;;;;;;26.20;19.67;;;;;;;3.06;94.20;99430.88;5062162;28;20598;-65
2021/01/12 01:04:09;;;;;;;24.13;19.33;;;;;;;3.08;94.15;99426.31;5064027;28;20436;-64
2021/01/12 01:06:35;;;;;;;25.27;20.10;;;;;;;3.05;94.32;99420.41;5061397;28;20510;-64
2021/01/12 01:09:02;;;;;;;21.80;17.33;;;;;;;3.03;94.15;99411.75;5063504;28;20421;-65
2021/01/12 01:11:29;;;;;;;25.00;18.40;;;;;;;3.06;94.41;99409.75;5060294;28;20468;-65
2021/01/12 01:13:56;;;;;;;24.43;18.37;;;;;;;3.08;93.82;99409.63;5064110;28;20456;-65
2021/01/12 01:16:30;;;;;;;22.83;17.67;;;;;;;3.07;94.05;99402.66;5061653;28;20508;-65
2021/01/12 01:18:56;;;;;;;22.80;18.70;;;;;;;3.09;94.04;99398.09;5063279;28;20522;-65
2021/01/12 01:21:22;;;;;;;22.70;18.40;;;;;;;3.06;94.36;99393.06;5061494;28;20567;-64
2021/01/12 01:23:49;;;;;;;26.17;19.90;;;;;;;2.98;94.17;99396.25;5063151;28;20465;-64
2021/01/12 01:26:16;;;;;;;22.97;18.23;;;;;;;3.03;94.13;99380.91;5061219;28;20491;-65
2021/01/12 01:28:43;;;;;;;23.83;17.13;;;;;;;3.00;94.12;99378.50;5063332;28;20491;-64
2021/01/12 01:31:09;;;;;;;22.20;16.50;;;;;;;3.01;94.25;99378.38;5061810;28;20509;-65
2021/01/12 01:33:35;;;;;;;21.33;16.20;;;;;;;2.99;94.29;99376.81;5063306;28;20581;-64
2021/01/12 01:36:02;;;;;;;21.53;16.90;;;;;;;3.05;94.38;99383.44;5061714;28;20496;-65
2021/01/12 01:38:28;;;;;;;19.10;14.70;;;;;;;3.00;94.31;99368.78;5062564;28;20473;-64
2021/01/12 01:40:57;;;;;;;23.37;18.43;;;;;;;3.03;94.32;99370.34;5060948;28;20476;-65
2021/01/12 01:43:23;;;;;;;21.90;16.93;;;;;;;3.06;94.32;99382.50;5062660;28;20551;-65
2021/01/12 01:45:50;;;;;;;17.90;14.40;;;;;;;3.06;93.88;99375.41;5061187;28;20541;-65
2021/01/12 01:48:17;;;;;;;21.20;16.47;;;;;;;3.02;94.58;99381.84;5062260;28;20504;-65
2021/01/12 01:50:43;;;;;;;21.70;17.13;;;;;;;3.06;94.05;99367.50;5061223;28;20496;-67
2021/01/12 01:53:10;;;;;;;21.70;16.53;;;;;;;3.07;94.41;99374.44;5061999;28;20551;-67
2021/01/12 01:55:37;;;;;;;18.80;16.20;;;;;;;3.07;94.24;99360.41;5060414;28;20837;-64
2021/01/12 01:58:04;;;;;;;20.17;16.07;;;;;;;3.08;94.27;99368.22;5061819;28;20590;-64
2021/01/12 02:00:30;;;;;;;20.83;16.27;;;;;;;3.07;94.17;99363.03;5061157;28;20526;-65
2021/01/12 02:03:02;;;;;;;19.97;16.77;;;;;;;3.10;94.51;99345.16;5062511;28;20509;-64
2021/01/12 02:05:30;;;;;;;20.83;15.73;;;;;;;3.11;94.75;99353.94;5061164;28;20464;-64
2021/01/12 02:07:59;;;;;;;17.60;14.60;;;;;;;3.13;94.43;99355.50;5062061;28;20453;-64
2021/01/12 02:10:26;;;;;;;18.63;14.80;;;;;;;3.09;94.56;99345.28;5060658;28;20575;-64
2021/01/12 02:12:57;;;;;;;21.67;15.30;;;;;;;3.08;94.27;99344.44;5062402;28;20511;-64
2021/01/12 02:15:25;;;;;;;19.10;15.20;;;;;;;3.09;94.60;99335.56;5061051;28;20437;-65
2021/01/12 02:17:51;;;;;;;18.87;15.70;;;;;;;3.08;94.44;99322.47;5061865;28;20571;-64
2021/01/12 02:20:21;;;;;;;20.90;16.37;;;;;;;3.08;94.98;99330.41;5060715;28;20468;-64
2021/01/12 02:23:01;;;;;;;18.87;15.03;;;;;;;3.13;94.76;99330.91;5063906;28;20456;-64
2021/01/12 02:25:30;;;;;;;20.37;15.90;;;;;;;3.14;94.48;99330.78;5064339;28;20794;-64
2021/01/12 02:27:56;;;;;;;21.97;16.33;;;;;;;3.15;94.52;99328.97;5066645;28;20506;-64
2021/01/12 02:30:22;;;;;;;22.57;17.17;;;;;;;3.13;94.60;99322.97;5064793;28;20437;-64
2021/01/12 02:32:48;;;;;;;22.00;16.87;;;;;;;3.14;94.61;99311.44;5066454;28;20452;-64
2021/01/12 02:35:15;;;;;;;21.77;14.53;;;;;;;3.16;94.51;99307.75;5064866;28;20532;-64
2021/01/12 02:37:43;;;;;;;23.57;16.40;;;;;;;3.16;94.63;99302.47;5065913;28;20484;-64
2021/01/12 02:40:11;;;;;;;19.83;17.00;;;;;;;3.20;94.65;99300.41;5064247;28;20483;-64
2021/01/12 02:42:42;;;;;;;18.30;16.00;;;;;;;3.24;94.67;99291.28;5066049;28;20602;-64
2021/01/12 02:45:10;;;;;;;21.40;16.67;;;;;;;3.22;94.70;99282.66;5064610;28;20500;-64
2021/01/12 02:47:36;;;;;;;22.20;16.23;;;;;;;3.25;94.54;99282.44;5065583;28;20941;-64
2021/01/12 02:50:04;;;;;;;22.27;16.77;;;;;;;3.26;94.47;99275.31;5066521;28;20492;-64
2021/01/12 02:52:30;;;;;;;24.50;18.50;;;;;;;3.23;94.49;99271.13;5064835;28;20480;-65
2021/01/12 02:54:56;;;;;;;22.83;17.67;;;;;;;3.32;94.28;99264.31;5065998;28;20468;-65
2021/01/12 02:57:22;;;;;;;21.90;16.70;;;;;;;3.28;94.66;99252.28;5063703;28;20506;-65
2021/01/12 02:59:49;;;;;;;25.10;17.87;;;;;;;3.27;94.45;99256.72;5066555;28;20485;-65
2021/01/12 03:02:15;;;;;;;20.73;16.30;;;;;;;3.32;94.51;99251.94;5064666;28;20511;-64
2021/01/12 03:04:41;;;;;;;25.00;18.20;;;;;;;3.30;95.01;99242.44;5066096;28;20475;-65
2021/01/12 03:07:07;;;;;;;21.47;17.30;;;;;;;3.31;94.94;99234.38;5063775;28;20515;-64
2021/01/12 03:09:34;;;;;;;21.87;17.10;;;;;;;3.32;94.73;99233.44;5065968;28;20465;-64
2021/01/12 03:12:00;;;;;;;23.30;18.63;;;;;;;3.25;94.89;99226.13;5063765;28;20500;-64
2021/01/12 03:14:26;;;;;;;20.60;16.73;;;;;;;3.33;94.61;99226.34;5066018;28;20429;-64
2021/01/12 03:16:53;;;;;;;23.03;17.17;;;;;;;3.29;94.92;99217.81;5063191;28;20488;-65
2021/01/12 03:19:20;;;;;;;23.43;16.90;;;;;;;3.28;94.85;99215.28;5065778;28;20452;-66
2021/01/12 03:21:46;;;;;;;17.93;15.20;;;;;;;3.32;94.61;99209.66;5063514;28;20496;-66
2021/01/12 03:24:12;;;;;;;20.47;16.47;;;;;;;3.31;94.73;99210.59;5065886;28;20471;-67
2021/01/12 03:26:38;;;;;;;21.13;16.33;;;;;;;3.30;94.89;99201.03;5063165;28;20480;-65
2021/01/12 03:29:04;;;;;;;21.70;16.70;;;;;;;3.24;94.90;99206.78;5065466;28;20429;-65
2021/01/12 03:31:30;;;;;;;21.17;16.27;;;;;;;3.29;94.69;99201.97;5063551;28;20509;-65
2021/01/12 03:33:58;;;;;;;20.10;16.17;;;;;;;3.28;94.85;99189.75;5064234;28;20496;-65
2021/01/12 03:36:24;;;;;;;21.47;16.90;;;;;;;3.26;94.61;99196.91;5063014;28;20540;-65
2021/01/12 03:38:50;;;;;;;19.53;15.80;;;;;;;3.24;94.48;99184.81;5065240;28;20500;-64
2021/01/12 03:41:16;;;;;;;21.40;16.40;;;;;;;3.20;94.34;99178.94;5062844;28;20496;-64
2021/01/12 03:43:42;;;;;;;20.10;15.10;;;;;;;3.18;94.93;99181.69;5065138;28;20567;-65
2021/01/12 03:46:08;;;;;;;21.27;17.10;;;;;;;3.23;94.77;99170.75;5063347;28;20568;-65
2021/01/12 03:48:34;;;;;;;20.90;17.37;;;;;;;3.18;95.01;99173.75;5065529;28;20457;-65
2021/01/12 03:51:01;;;;;;;21.83;16.40;;;;;;;3.18;95.00;99160.56;5063510;28;20461;-65
2021/01/12 03:53:28;;;;;;;21.60;16.40;;;;;;;3.20;94.98;99155.16;5064935;28;20460;-64
2021/01/12 03:55:54;;;;;;;21.27;16.80;;;;;;;3.17;94.67;99163.31;5063410;28;20487;-65
2021/01/12 03:58:20;;;;;;;17.47;14.20;;;;;;;3.22;94.52;99161.16;5064245;28;20563;-65
2021/01/12 04:00:46;;;;;;;20.70;15.47;;;;;;;3.19;94.62;99158.75;5063179;28;20488;-65
2021/01/12 04:03:12;;;;;;;18.60;14.70;;;;;;;3.23;94.91;99141.72;5064821;28;20472;-65
2021/01/12 04:05:39;;;;;;;21.80;16.67;;;;;;;3.25;94.54;99149.53;5063439;28;20524;-65
2021/01/12 04:08:08;;;;;;;15.70;13.50;;;;;;;3.23;94.57;99143.50;5064291;28;20480;-65
2021/01/12 04:10:35;;;;;;;17.13;13.80;;;;;;;3.23;94.77;99141.72;5062457;28;20487;-65
2021/01/12 04:13:01;;;;;;;17.60;14.10;;;;;;;3.20;94.71;99141.94;5064761;28;20436;-65
2021/01/12 04:15:27;;;;;;;17.80;14.07;;;;;;;3.20;94.39;99126.94;5063273;28;20564;-65
2021/01/12 04:17:53;;;;;;;19.93;16.40;;;;;;;3.17;94.99;99119.25;5064254;28;20548;-65
2021/01/12 04:20:19;;;;;;;19.90;15.43;;;;;;;3.24;94.70;99121.41;5062987;28;21144;-65
2021/01/12 04:22:46;;;;;;;18.23;14.90;;;;;;;3.17;94.69;99116.59;5063837;28;20538;-65
2021/01/12 04:25:13;;;;;;;17.47;13.53;;;;;;;3.19;94.66;99103.28;5062850;28;20460;-65
2021/01/12 04:27:39;;;;;;;19.30;15.27;;;;;;;3.19;94.80;99105.91;5063842;28;20483;-65
2021/01/12 04:30:06;;;;;;;16.57;14.30;;;;;;;3.16;94.46;99100.88;5063126;28;20535;-65
2021/01/12 04:32:33;;;;;;;17.63;14.07;;;;;;;3.16;94.67;99095.59;5063729;28;20969;-65
2021/01/12 04:34:59;;;;;;;17.07;13.60;;;;;;;3.19;94.86;99079.50;5064462;28;20457;-65
2021/01/12 04:37:25;;;;;;;19.20;16.20;;;;;;;3.13;94.88;99082.66;5062044;28;20526;-65
2021/01/12 04:39:51;;;;;;;19.80;14.10;;;;;;;3.17;94.82;99082.28;5063796;28;20480;-65
2021/01/12 04:42:18;;;;;;;18.57;13.77;;;;;;;3.23;94.74;99077.47;5062471;28;20497;-65
2021/01/12 04:44:44;;;;;;;16.73;12.93;;;;;;;3.19;94.86;99079.50;5063964;28;20501;-64
2021/01/12 04:47:10;;;;;;;17.70;13.53;;;;;;;3.16;95.17;99072.69;5062220;28;21152;-64
2021/01/12 04:49:36;;;;;;;18.00;13.50;;;;;;;3.15;95.31;99065.72;5064095;28;20440;-64
2021/01/12 04:52:03;;;;;;;17.80;13.70;;;;;;;3.15;95.22;99072.81;5062048;28;20534;-65
2021/01/12 04:54:33;;;;;;;19.30;14.07;;;;;;;3.20;95.10;99058.25;5063779;28;20461;-65
2021/01/12 04:56:59;;;;;;;14.63;12.43;;;;;;;3.24;94.71;99061.50;5061933;28;20480;-64
2021/01/12 04:59:29;;;;;;;15.43;12.40;;;;;;;3.23;94.84;99059.84;5063508;28;20485;-65
2021/01/12 05:01:56;;;;;;;14.50;11.67;;;;;;;3.23;94.75;99043.97;5042510;28;20484;-65
2021/01/12 05:04:22;;;;;;;16.70;14.27;;;;;;;3.21;95.07;99045.88;5049207;28;20475;-64
2021/01/12 05:06:48;;;;;;;16.80;13.67;;;;;;;3.24;95.34;99035.06;5062059;28;20513;-65
2021/01/12 05:09:20;;;;;;;16.33;13.30;;;;;;;3.29;95.11;99040.00;5063820;28;20473;-65
2021/01/12 05:11:46;;;;;;;18.77;13.50;;;;;;;3.27;95.23;99040.13;5061158;28;20464;-65
2021/01/12 05:14:13;;;;;;;14.33;11.13;;;;;;;3.33;95.48;99033.50;5063683;28;20512;-65
2021/01/12 05:16:46;;;;;;;17.73;13.83;;;;;;;3.32;95.23;99023.91;5061920;28;21017;-65
2021/01/12 05:19:17;;;;;;;15.00;13.00;;;;;;;3.35;95.46;99021.00;5063388;28;20484;-65
2021/01/12 05:21:45;;;;;;;16.10;13.87;;;;;;;3.39;95.08;99015.34;5050084;28;20473;-65
2021/01/12 05:24:12;;;;;;;17.43;13.57;;;;;;;3.43;94.92;99015.94;5059424;28;20471;-65
2021/01/12 05:26:39;;;;;;;16.30;13.17;;;;;;;3.42;95.01;99002.84;5060643;28;20512;-65
2021/01/12 05:29:07;;;;;;;13.60;12.17;;;;;;;3.43;95.24;99004.53;5062622;28;20482;-65
2021/01/12 05:31:34;;;;;;;13.47;11.47;;;;;;;3.50;95.17;98998.59;5060006;28;20492;-64
2021/01/12 05:34:05;;;;;;;14.80;12.40;;;;;;;3.52;95.01;98999.31;5062344;28;20445;-65
2021/01/12 05:36:31;;;;;;;16.60;14.10;;;;;;;3.52;95.29;98990.56;5060262;28;20527;-64
2021/01/12 05:38:59;;;;;;;16.37;14.43;;;;;;;3.58;95.16;98996.19;5060584;28;20472;-65
2021/01/12 05:41:25;;;;;;;15.07;12.77;;;;;;;3.66;95.37;99000.00;5059978;28;20507;-65
2021/01/12 05:43:51;;;;;;;14.60;12.83;;;;;;;3.70;95.20;98996.16;5061660;28;20484;-65
2021/01/12 05:46:18;;;;;;;16.47;13.53;;;;;;;3.76;95.38;98985.88;5059808;28;20535;-64
2021/01/12 05:48:45;;;;;;;15.80;12.87;;;;;;;3.74;95.45;98989.63;5062225;28;20499;-64
2021/01/12 05:51:13;;;;;;;16.90;12.70;;;;;;;3.86;94.80;98979.84;5059372;28;20496;-64
2021/01/12 05:54:05;;;;;;;17.17;15.00;;;;;;;3.89;95.33;98974.25;5058567;28;20471;-65
2021/01/12 05:56:32;;;;;;;14.10;11.97;;;;;;;3.96;95.30;98981.56;5058406;28;20472;-65
2021/01/12 05:59:00;;;;;;;17.47;15.13;;;;;;;3.96;95.56;98973.63;5061191;28;20502;-65
2021/01/12 06:01:41;;;;;;;18.67;12.83;;;;;;;4.05;95.28;98972.00;5059017;28;20942;-65
2021/01/12 06:04:09;;;;;;;16.40;13.30;;;;;;;4.05;95.46;98977.31;5061107;28;20452;-65
2021/01/12 06:06:37;;;;;;;18.20;13.83;;;;;;;4.10;95.52;98972.47;5059384;28;20534;-66
2021/01/12 06:09:04;;;;;;;17.23;13.00;;;;;;;4.24;94.92;98973.94;5060791;28;20449;-65
2021/01/12 06:11:34;;;;;;;14.90;12.27;;;;;;;4.24;95.02;98971.28;5059405;28;20490;-65
2021/01/12 06:14:06;;;;;;;17.20;14.20;;;;;;;4.30;94.99;98970.72;5061170;28;21028;-65
2021/01/12 06:16:34;;;;;;;14.80;12.40;;;;;;;4.38;94.80;98972.72;5058195;28;20563;-66
2021/01/12 06:19:07;;;;;;;15.83;13.50;;;;;;;4.36;94.62;98969.38;5060849;28;20493;-66
2021/01/12 06:21:47;;;;;;;13.50;11.67;;;;;;;4.39;94.80;98957.69;5058079;28;20511;-64
2021/01/12 06:24:15;;;;;;;18.47;14.87;;;;;;;4.40;94.69;98967.31;5061103;28;20932;-65
2021/01/12 06:26:42;;;;;;;15.80;14.10;;;;;;;4.42;94.82;98979.44;5058503;28;20504;-65
2021/01/12 06:29:09;;;;;;;17.80;12.93;;;;;;;4.39;95.12;98961.16;5060042;28;21012;-64
2021/01/12 06:31:46;;;;;;;16.70;13.10;;;;;;;4.45;94.90;98959.81;5059963;28;20508;-63
2021/01/12 06:34:16;;;;;;;15.60;12.87;;;;;;;4.49;94.06;98955.91;5061173;28;20441;-65
2021/01/12 06:36:48;;;;;;;15.77;13.77;;;;;;;4.50;94.31;98947.03;5058460;28;20485;-65
2021/01/12 06:39:16;;;;;;;14.90;12.50;;;;;;;4.50;94.57;98961.09;5061485;28;20465;-64
2021/01/12 06:41:43;;;;;;;16.70;13.80;;;;;;;4.50;94.65;98947.84;5059556;28;20499;-65
2021/01/12 06:44:20;;;;;;;16.60;13.73;;;;;;;4.55;94.71;98951.88;5060263;28;20457;-66
2021/01/12 06:46:46;;;;;;;21.43;15.70;;;;;;;4.51;94.91;98957.47;5059281;28;20890;-66
2021/01/12 06:49:17;;;;;;;18.07;15.30;;;;;;;4.55;94.75;98957.19;5061521;28;20474;-67
2021/01/12 06:51:44;;;;;;;17.20;14.83;;;;;;;4.56;94.38;98948.28;5058568;28;20469;-65
2021/01/12 06:54:13;;;;;;;18.53;14.00;;;;;;;4.59;94.67;98950.66;5060758;28;20460;-67
2021/01/12 06:56:41;;;;;;;17.10;13.00;;;;;;;4.62;94.62;98945.13;5059029;28;20481;-66
2021/01/12 06:59:13;;;;;;;18.60;14.93;;;;;;;4.69;94.17;98947.06;5061553;28;20555;-66
2021/01/12 07:01:39;;;;;;;18.60;14.80;;;;;;;4.65;94.17;98947.47;5060341;28;20914;-65
2021/01/12 07:04:06;;;;;;;17.20;13.13;;;;;;;4.70;93.91;98946.13;5061888;28;20449;-67
2021/01/12 07:06:33;;;;;;;16.27;14.10;;;;;;;4.69;94.17;98943.59;5060049;28;20477;-68
2021/01/12 07:09:02;;;;;;;20.43;15.70;;;;;;;4.67;94.30;98940.22;5064258;28;20452;-67
2021/01/12 07:11:28;;;;;;;17.43;14.00;;;;;;;4.74;94.37;98938.75;5064128;28;20933;-65
2021/01/12 07:13:54;;;;;;;16.13;12.60;;;;;;;4.74;94.18;98946.69;5065411;28;20483;-67
2021/01/12 07:16:21;;;;;;;17.40;14.57;;;;;;;4.79;93.95;98951.53;5063744;28;20484;-68
2021/01/12 07:18:58;;;;;;;15.77;12.90;;;;;;;4.82;93.88;98952.09;5058819;28;20630;-70
2021/01/12 07:21:28;;;;;;;14.80;13.23;;;;;;;4.78;94.17;98948.06;5063841;28;20484;-67
2021/01/12 07:24:01;;;;;;;16.47;14.77;;;;;;;4.78;94.22;98941.94;5064949;28;20473;-67
2021/01/12 07:26:28;;;;;;;15.40;12.33;;;;;;;4.80;94.22;98940.00;5060192;28;20471;-70
2021/01/12 07:29:04;;;;;;;14.73;12.93;;;;;;;4.79;94.01;98944.47;5060068;28;20445;-67
2021/01/12 07:31:31;;;;;;;17.00;12.77;;;;;;;4.80;94.16;98945.28;5047138;28;20480;-69
2021/01/12 07:33:57;;;;;;;13.80;11.77;;;;;;;4.85;93.60;98945.72;5064629;28;20484;-69
2021/01/12 07:36:24;;;;;;;12.40;10.60;;;;;;;4.82;93.96;98946.81;5056847;28;20476;-68
2021/01/12 07:38:51;;;;;;;9.30;8.37;;;;;;;4.85;93.24;98943.91;5063088;28;20504;-68
2021/01/12 07:41:19;;;;;;;9.13;7.97;;;;;;;4.87;93.43;98954.34;5061277;28;20503;-69
2021/01/12 07:43:46;;;;;;;10.23;9.23;;;;;;;4.91;93.35;98958.41;5062966;28;20752;-64
2021/01/12 07:46:12;;;;;;;15.77;8.30;;;;;;;4.82;93.61;98962.69;5061921;28;20476;-65
2021/01/12 07:48:39;;;;;;;11.90;10.70;;;;;;;4.88;93.85;98964.00;5063136;28;20530;-65
2021/01/12 07:51:05;;;;;;;11.50;9.97;;;;;;;4.85;94.06;98962.44;5061213;28;20480;-64
2021/01/12 07:53:32;;;;;;;13.47;10.60;;;;;;;4.87;93.63;98963.13;5063465;28;20491;-64
2021/01/12 07:56:00;;;;;;;10.03;8.93;;;;;;;4.85;93.53;98964.25;5061614;28;20983;-67
2021/01/12 07:58:27;;;;;;;9.20;8.10;;;;;;;4.83;93.19;98966.22;5062317;28;20584;-70
2021/01/12 08:00:53;;;;;;;8.70;7.80;;;;;;;4.83;92.93;98961.75;5062096;28;20469;-70
2021/01/12 08:03:24;;;;;;;8.33;7.17;;;;;;;4.83;93.15;98967.03;5063423;28;20452;-70
2021/01/12 08:05:57;;;;;;;7.13;6.30;;;;;;;4.84;93.22;98965.22;5060977;28;20472;-71
2021/01/12 08:08:25;;;;;;;6.80;6.20;;;;;;;4.81;93.17;98966.34;5062198;28;20445;-71
2021/01/12 08:10:52;;;;;;;6.17;5.40;;;;;;;4.81;92.88;98969.00;5061573;28;20552;-66
2021/01/12 08:13:18;;;;;;;6.20;5.60;;;;;;;4.75;92.93;98964.22;5061998;28;20457;-65
2021/01/12 08:15:47;;;;;;;7.37;6.67;;;;;;;4.83;92.93;98966.22;5061474;28;21065;-66
2021/01/12 08:18:15;;;;;;;6.60;5.73;;;;;;;4.79;93.32;98965.66;5062330;28;20552;-67
2021/01/12 08:20:42;;;;;;;7.27;5.80;;;;;;;4.79;93.53;98967.44;5060178;28;20475;-67
2021/01/12 08:23:10;;;;;;;6.40;5.60;;;;;;;4.83;93.41;98966.22;5062367;28;21044;-67
2021/01/12 08:25:36;;;;;;;5.80;5.20;;;;;;;4.83;93.31;98969.69;5060631;28;20472;-65
2021/01/12 08:28:04;;;;;;;5.93;5.23;;;;;;;4.88;93.69;98969.28;5061273;28;20476;-65
2021/01/12 08:30:31;;;;;;;5.93;5.33;;;;;;;4.89;93.48;98966.47;5061864;28;20468;-63
2021/01/12 08:33:02;;;;;;;7.90;5.53;;;;;;;4.88;93.19;98962.16;5062369;28;20461;-64
2021/01/12 08:35:30;;;;;;;6.07;5.47;;;;;;;4.94;93.35;98967.91;5059420;28;20475;-63
2021/01/12 08:37:58;;;;;;;5.50;4.63;;;;;;;4.92;93.31;98968.03;5062103;28;20599;-63
2021/01/12 08:40:26;;;;;;;6.00;5.40;;;;;;;5.00;93.64;98962.03;5060599;28;20506;-62
2021/01/12 08:42:53;;;;;;;5.23;4.73;;;;;;;5.02;93.39;98962.75;5061402;28;20457;-64
2021/01/12 08:45:19;;;;;;;6.27;4.90;;;;;;;4.95;93.32;98965.13;5060743;28;20445;-63
2021/01/12 08:47:46;;;;;;;5.63;4.57;;;;;;;5.01;93.40;98974.31;5062151;28;20445;-65
2021/01/12 08:50:13;;;;;;;5.40;4.53;;;;;;;5.03;93.14;98975.84;5059832;28;20437;-66
2021/01/12 08:52:48;;;;;;;5.80;4.83;;;;;;;5.00;93.02;98977.94;5061636;28;20452;-68
2021/01/12 08:55:19;;;;;;;5.63;5.03;;;;;;;5.11;93.05;98979.66;5057490;28;20513;-68
2021/01/12 08:57:55;;;;;;;6.60;4.23;;;;;;;5.04;93.05;98987.31;5060640;28;20516;-67
2021/01/12 09:00:27;;;;;;;4.60;3.80;;;;;;;5.08;93.19;98984.22;5058731;28;20506;-66
2021/01/12 09:02:54;;;;;;;4.33;3.93;;;;;;;5.06;93.84;98988.81;5054168;28;20452;-65
2021/01/12 09:05:21;;;;;;;5.00;4.20;;;;;;;5.13;93.34;98985.66;5059689;28;20503;-65
2021/01/12 09:07:47;;;;;;;5.30;4.80;;;;;;;5.07;93.47;98989.69;5061502;28;20457;-65
2021/01/12 09:10:13;;;;;;;6.37;5.30;;;;;;;5.14;93.63;98990.81;5059197;28;20452;-68
2021/01/12 09:12:40;;;;;;;5.07;4.57;;;;;;;5.11;93.49;98991.06;5061585;28;20452;-68
2021/01/12 09:15:09;;;;;;;5.83;5.23;;;;;;;5.09;93.68;98985.09;5058138;28;20456;-69
2021/01/12 09:17:36;;;;;;;6.73;5.13;;;;;;;5.14;93.34;98990.81;5057597;28;20484;-65
2021/01/12 09:20:02;;;;;;;6.10;5.23;;;;;;;5.14;93.61;98988.16;5050735;28;20582;-69
2021/01/12 09:22:30;;;;;;;8.13;5.67;;;;;;;5.11;93.92;98982.31;5060044;28;20491;-68
2021/01/12 09:24:58;;;;;;;6.27;5.03;;;;;;;5.11;93.72;98993.72;5060081;28;20445;-69
2021/01/12 09:27:27;;;;;;;9.67;5.47;;;;;;;5.15;94.18;99000.41;5058411;28;20472;-66
2021/01/12 09:29:53;;;;;;;8.20;5.77;;;;;;;5.20;93.80;98990.25;5060157;28;20445;-67
2021/01/12 09:32:32;;;;;;;7.00;5.23;;;;;;;5.18;93.50;98986.91;5058160;28;20476;-65
2021/01/12 09:34:59;;;;;;;5.90;5.23;;;;;;;5.22;93.50;99001.53;5056815;28;20448;-65
2021/01/12 09:37:25;;;;;;;7.40;5.67;;;;;;;5.29;93.23;98993.88;5059502;28;20487;-63
2021/01/12 09:39:54;;;;;;;8.80;5.20;;;;;;;5.24;93.59;98996.97;5059790;28;20958;-65
2021/01/12 09:42:22;;;;;;;5.03;4.53;;;;;;;5.22;93.91;98998.06;5059165;28;20499;-65
2021/01/12 09:44:48;;;;;;;6.23;4.97;;;;;;;5.18;93.99;98997.50;5060908;28;20602;-65
2021/01/12 09:47:15;;;;;;;5.70;5.10;;;;;;;5.22;93.77;99012.13;5058352;28;20484;-66
2021/01/12 09:49:41;;;;;;;6.43;5.13;;;;;;;5.19;93.67;99001.84;5060527;28;20447;-63
2021/01/12 09:52:07;;;;;;;6.90;4.87;;;;;;;5.19;94.46;99009.78;5058759;28;20499;-67
2021/01/12 09:54:34;;;;;;;5.83;4.97;;;;;;;5.28;93.65;99011.59;5059511;28;20506;-66
2021/01/12 09:57:01;;;;;;;5.97;4.77;;;;;;;5.21;93.85;99007.84;5058374;28;20905;-65
2021/01/12 09:59:27;;;;;;;4.53;4.13;;;;;;;5.32;93.22;99016.63;5060778;28;20503;-64
2021/01/12 10:01:57;;;;;;;6.33;4.50;;;;;;;5.21;93.75;99025.56;5058269;28;20483;-69
2021/01/12 10:04:24;;;;;;;4.80;4.23;;;;;;;5.27;93.48;99033.75;5060981;28;20457;-69
2021/01/12 10:06:55;;;;;;;7.37;4.93;;;;;;;5.28;93.40;99047.88;5058821;28;20480;-70
2021/01/12 10:09:21;;;;;;;4.37;3.97;;;;;;;5.23;92.81;99045.63;5060291;28;20615;-69
2021/01/12 10:11:48;;;;;;;3.67;3.37;;;;;;;5.15;93.26;99049.94;5059064;28;20468;-68
2021/01/12 10:14:15;;;;;;;3.23;2.90;;;;;;;5.12;92.40;99066.94;5059583;28;20453;-67
2021/01/12 10:16:41;;;;;;;2.13;1.93;;;;;;;4.88;90.94;99076.06;5056933;28;20468;-69
2021/01/12 10:19:07;;;;;;;2.50;1.87;;;;;;;4.67;90.85;99067.28;5057765;28;20538;-66
2021/01/12 10:21:34;;;;;;;2.50;2.20;;;;;;;4.53;92.11;99077.28;5059072;28;20473;-65
2021/01/12 10:24:00;;;;;;;3.73;2.10;;;;;;;4.55;91.86;99078.94;5059641;28;20457;-65
2021/01/12 10:26:27;;;;;;;2.40;2.20;;;;;;;4.43;91.75;99080.84;5058831;28;20607;-63
2021/01/12 10:28:53;;;;;;;2.53;1.97;;;;;;;4.47;91.75;99096.31;5060274;28;20507;-64
2021/01/12 10:31:21;;;;;;;3.03;2.47;;;;;;;4.46;91.98;99104.38;5057853;28;20480;-65
2021/01/12 10:33:48;;;;;;;2.17;1.97;;;;;;;4.39;91.79;99106.69;5060098;28;20456;-66
2021/01/12 10:36:15;;;;;;;2.50;2.30;;;;;;;4.28;90.79;99110.25;5057911;28;20483;-64
2021/01/12 10:38:42;;;;;;;2.13;1.93;;;;;;;4.15;89.72;99109.63;5052665;28;20488;-65
2021/01/12 10:41:08;;;;;;;2.33;2.03;;;;;;;4.06;88.87;99110.38;5054469;28;20842;-69
2021/01/12 10:43:34;;;;;;;2.80;1.83;;;;;;;3.88;88.60;99124.13;5061164;28;20905;-68
2021/01/12 10:46:01;;;;;;;2.40;2.00;;;;;;;3.87;88.48;99127.78;5060967;28;20895;-70
2021/01/12 10:48:28;;;;;;;2.50;2.00;;;;;;;3.75;88.19;99134.06;5063881;28;20444;-63
2021/01/12 10:50:55;;;;;;;3.57;1.67;;;;;;;3.71;89.05;99140.53;5061531;28;20518;-64
2021/01/12 10:53:21;;;;;;;2.80;2.03;;;;;;;3.71;88.41;99137.91;5062437;28;20920;-64
2021/01/12 10:55:48;;;;;;;3.07;1.90;;;;;;;3.72;89.07;99151.00;5061132;28;20470;-65
2021/01/12 10:58:15;;;;;;;4.87;2.00;;;;;;;3.67;88.78;99153.16;5063012;28;20514;-65
2021/01/12 11:00:42;;;;;;;3.47;2.17;;;;;;;3.73;88.97;99154.47;5061295;28;20487;-68
2021/01/12 11:03:09;;;;;;;3.40;2.00;;;;;;;3.78;89.19;99162.88;5063503;28;20453;-66
2021/01/12 11:05:36;;;;;;;5.83;2.47;;;;;;;3.84;88.67;99157.09;5061850;28;20506;-68
2021/01/12 11:08:03;;;;;;;3.50;1.93;;;;;;;3.81;87.04;99154.69;5062094;28;20461;-70
2021/01/12 11:10:30;;;;;;;6.43;2.00;;;;;;;3.77;86.98;99148.81;5062233;28;20495;-70
2021/01/12 11:12:59;;;;;;;4.90;2.53;;;;;;;3.79;86.47;99155.78;5063438;28;20461;-65
2021/01/12 11:15:25;;;;;;;2.20;1.90;;;;;;;3.86;85.75;99160.44;5060572;28;20483;-64
2021/01/12 11:17:51;;;;;;;4.10;1.53;;;;;;;3.82;85.06;99155.53;5063188;28;20960;-65
2021/01/12 11:20:18;;;;;;;5.70;2.40;;;;;;;3.95;85.98;99162.34;5053587;28;20457;-63
2021/01/12 11:22:45;;;;;;;2.70;1.60;;;;;;;3.99;84.96;99173.50;5056368;28;20466;-64
2021/01/12 11:25:13;;;;;;;5.40;1.30;;;;;;;4.22;84.73;99174.28;5061305;28;20437;-62
2021/01/12 11:27:39;;;;;;;7.00;2.30;;;;;;;4.30;84.25;99178.91;5062740;28;20449;-63
2021/01/12 11:30:08;;;;;;;3.60;1.50;;;;;;;4.40;83.43;99179.00;5060983;28;20456;-63
2021/01/12 11:32:35;;;;;;;3.60;1.97;;;;;;;4.36;83.32;99182.88;5063510;28;20780;-63